Time;durP1;ratioP1;P1;durP2;ratioP2;P2;SDS_P1;SDS_P2;PMS_P1;PMS_P2;Temp;Humidity;BMP_temperature;BMP_pressure;BME280_temperature;BME280_humidity;BME280_pressure;Samples;Min_cycle;Max_cycle;Signal;HPM_P1;HPM_P2
2023/03/30 00:01:53;;;;;;;11.50;7.03;;;11.10;99.90;;;;;;5093325;28;20048;-77
2023/03/30 00:04:21;;;;;;;8.82;6.63;;;11.00;99.90;;;;;;5075457;28;20044;-77
2023/03/30 00:06:48;;;;;;;8.45;6.47;;;11.10;99.90;;;;;;5093301;28;20044;-77
2023/03/30 00:09:14;;;;;;;8.52;6.60;;;11.10;99.90;;;;;;5093249;28;20064;-76
2023/03/30 00:11:39;;;;;;;8.80;5.95;;;11.20;99.90;;;;;;5094361;28;20381;-77
2023/03/30 00:14:05;;;;;;;7.68;6.10;;;11.20;99.90;;;;;;5076940;28;20111;-76
2023/03/30 00:16:31;;;;;;;9.45;5.72;;;11.20;99.90;;;;;;5094068;28;20044;-77
2023/03/30 00:18:57;;;;;;;9.23;5.78;;;11.30;99.90;;;;;;5093144;28;20052;-78
2023/03/30 00:21:22;;;;;;;10.00;5.72;;;11.30;99.90;;;;;;5094194;28;20078;-77
2023/03/30 00:23:50;;;;;;;7.57;5.55;;;11.30;99.90;;;;;;5093064;28;20040;-77
2023/03/30 00:26:16;;;;;;;8.93;6.00;;;11.30;99.90;;;;;;5093380;28;20048;-77
2023/03/30 00:28:42;;;;;;;8.82;5.88;;;11.30;99.90;;;;;;5093563;28;20055;-77
2023/03/30 00:31:10;;;;;;;6.75;5.15;;;11.30;99.90;;;;;;5078872;28;20373;-77
2023/03/30 00:33:36;;;;;;;7.85;5.50;;;11.30;99.90;;;;;;5097728;28;20048;-77
2023/03/30 00:36:01;;;;;;;8.88;5.43;;;11.30;99.90;;;;;;5096950;28;20085;-77
2023/03/30 00:38:28;;;;;;;8.02;5.78;;;11.30;99.90;;;;;;5096894;28;20119;-77
2023/03/30 00:40:59;;;;;;;8.70;5.63;;;11.30;99.90;;;;;;5096876;28;20052;-77
2023/03/30 00:43:26;;;;;;;7.00;5.55;;;11.30;99.90;;;;;;5097398;28;20044;-77
2023/03/30 00:45:54;;;;;;;6.85;5.05;;;11.20;99.90;;;;;;5096877;28;20132;-77
2023/03/30 00:48:30;;;;;;;6.95;5.00;;;11.20;99.90;;;;;;5097008;28;20105;-77
2023/03/30 00:51:09;;;;;;;8.98;5.22;;;11.20;99.90;;;;;;5097193;28;20048;-77
2023/03/30 00:53:44;;;;;;;7.93;5.47;;;11.20;99.90;;;;;;5097435;28;20388;-77
2023/03/30 00:56:13;;;;;;;6.72;4.28;;;11.20;99.90;;;;;;5096602;28;20052;-77
2023/03/30 00:58:41;;;;;;;8.30;4.65;;;11.20;99.90;;;;;;5078924;28;20527;-77
2023/03/30 01:01:11;;;;;;;6.40;4.35;;;11.20;99.90;;;;;;5096490;28;20097;-77
2023/03/30 01:03:44;;;;;;;6.90;4.55;;;11.20;99.90;;;;;;5078995;28;20491;-77
2023/03/30 01:06:11;;;;;;;6.57;4.60;;;11.20;99.90;;;;;;5096539;28;20109;-77
2023/03/30 01:08:37;;;;;;;7.80;4.50;;;11.20;99.90;;;;;;5096338;28;20087;-77
2023/03/30 01:11:05;;;;;;;6.68;4.25;;;11.30;99.90;;;;;;5096281;28;20545;-77
2023/03/30 01:13:36;;;;;;;6.30;4.00;;;11.30;99.90;;;;;;5096630;28;20095;-77
2023/03/30 01:16:06;;;;;;;6.30;3.90;;;11.30;99.90;;;;;;5096224;28;20134;-77
2023/03/30 01:18:56;;;;;;;5.53;3.58;;;11.30;99.90;;;;;;5096696;28;20091;-77
2023/03/30 01:21:41;;;;;;;5.80;3.45;;;11.40;99.90;;;;;;5096455;28;20048;-77
2023/03/30 01:24:14;;;;;;;4.68;2.88;;;11.40;99.90;;;;;;5061447;28;20052;-77
2023/03/30 01:27:25;;;;;;;5.03;2.83;;;11.40;99.90;;;;;;5096099;28;20051;-77
2023/03/30 01:30:17;;;;;;;6.28;3.53;;;11.40;99.90;;;;;;5095251;28;20039;-76
2023/03/30 01:33:18;;;;;;;6.45;3.15;;;11.40;99.90;;;;;;5095942;28;20040;-76
2023/03/30 01:35:51;;;;;;;4.80;3.00;;;11.60;99.90;;;;;;5095830;28;20473;-77
2023/03/30 01:38:54;;;;;;;4.95;2.80;;;11.60;99.90;;;;;;5078275;28;20048;-76
2023/03/30 01:41:51;;;;;;;6.43;3.10;;;11.70;99.90;;;;;;5094784;28;20097;-76
2023/03/30 01:44:43;;;;;;;6.60;3.70;;;12.00;99.90;;;;;;5095728;28;20087;-76
2023/03/30 01:47:29;;;;;;;5.75;3.28;;;12.00;99.90;;;;;;5091391;28;20388;-77
2023/03/30 01:50:12;;;;;;;5.00;2.88;;;12.00;99.90;;;;;;5096164;28;20102;-76
2023/03/30 01:52:52;;;;;;;4.15;2.55;;;12.10;99.90;;;;;;5095563;28;20044;-76
2023/03/30 01:55:40;;;;;;;4.10;2.83;;;12.10;99.90;;;;;;5095541;28;20048;-76
2023/03/30 01:58:30;;;;;;;6.13;3.10;;;12.20;99.90;;;;;;5077539;28;20055;-77
2023/03/30 02:00:58;;;;;;;5.57;3.08;;;12.20;99.90;;;;;;5095871;28;20040;-75
2023/03/30 02:03:27;;;;;;;4.78;2.90;;;12.10;99.90;;;;;;5095465;28;20472;-76
2023/03/30 02:06:02;;;;;;;4.88;2.40;;;12.10;99.90;;;;;;5095822;28;20044;-77
2023/03/30 02:08:31;;;;;;;4.32;2.60;;;12.20;99.90;;;;;;5095274;28;20477;-76
2023/03/30 02:10:58;;;;;;;5.47;3.00;;;12.20;99.90;;;;;;5095665;28;20051;-77
2023/03/30 02:13:26;;;;;;;5.30;2.85;;;12.20;99.90;;;;;;5094894;28;20190;-76
2023/03/30 02:16:06;;;;;;;5.32;2.95;;;12.20;99.90;;;;;;5095117;28;20036;-76
2023/03/30 02:18:32;;;;;;;4.40;2.72;;;12.20;99.90;;;;;;5095559;28;20054;-77
2023/03/30 02:20:58;;;;;;;5.25;3.00;;;12.20;99.90;;;;;;5094924;28;20127;-76
2023/03/30 02:23:32;;;;;;;4.72;2.80;;;12.10;99.90;;;;;;5094923;28;20040;-76
2023/03/30 02:25:58;;;;;;;6.25;3.05;;;12.20;99.90;;;;;;5095528;28;20051;-75
2023/03/30 02:28:24;;;;;;;4.43;2.80;;;12.20;99.90;;;;;;5094561;28;20405;-76
2023/03/30 02:30:50;;;;;;;4.28;2.65;;;12.20;99.90;;;;;;5095315;28;20051;-76
2023/03/30 02:33:59;;;;;;;5.63;3.20;;;12.20;99.90;;;;;;5076895;28;20048;-77
2023/03/30 02:37:00;;;;;;;5.80;2.65;;;12.20;99.90;;;;;;5094099;28;20496;-76
2023/03/30 02:40:11;;;;;;;6.18;2.85;;;12.20;99.90;;;;;;5094604;28;20059;-76
2023/03/30 02:43:07;;;;;;;4.25;2.47;;;12.30;99.90;;;;;;5094563;28;20048;-76
2023/03/30 02:46:06;;;;;;;4.23;2.50;;;12.30;99.90;;;;;;5094560;28;20098;-76
2023/03/30 02:49:08;;;;;;;5.30;2.50;;;12.30;99.90;;;;;;5094493;28;20408;-75
2023/03/30 02:51:40;;;;;;;5.75;3.00;;;12.30;99.90;;;;;;5076203;28;20052;-74
2023/03/30 02:54:05;;;;;;;4.50;2.58;;;12.40;99.90;;;;;;5094832;28;20044;-75
2023/03/30 02:57:03;;;;;;;6.32;2.40;;;12.40;99.90;;;;;;5094327;28;20051;-75
2023/03/30 02:59:57;;;;;;;5.18;2.50;;;12.40;99.90;;;;;;5089756;28;20530;-75
2023/03/30 03:02:39;;;;;;;4.78;2.60;;;12.40;99.90;;;;;;5094719;28;20040;-75
2023/03/30 03:05:09;;;;;;;6.18;2.63;;;12.40;99.90;;;;;;5095015;28;20055;-76
2023/03/30 03:07:37;;;;;;;4.05;2.13;;;12.30;99.90;;;;;;5077165;28;20415;-76
2023/03/30 03:10:05;;;;;;;4.10;2.22;;;12.30;99.90;;;;;;5093938;28;20052;-76
2023/03/30 03:12:31;;;;;;;4.93;2.38;;;12.20;99.90;;;;;;5094038;28;20044;-75
2023/03/30 03:14:57;;;;;;;4.60;2.53;;;12.10;99.90;;;;;;5094167;28;20510;-76
2023/03/30 03:17:23;;;;;;;6.15;2.78;;;12.00;99.90;;;;;;5093908;28;20447;-76
2023/03/30 03:19:49;;;;;;;3.75;2.58;;;11.90;99.90;;;;;;5093838;28;20044;-76
2023/03/30 03:22:16;;;;;;;5.32;2.55;;;11.90;99.90;;;;;;5076670;28;20436;-75
2023/03/30 03:24:41;;;;;;;4.75;2.60;;;12.00;99.90;;;;;;5093727;28;20511;-76
2023/03/30 03:27:07;;;;;;;4.18;2.35;;;11.90;99.90;;;;;;5093659;28;20040;-76
2023/03/30 03:29:33;;;;;;;3.35;2.60;;;11.90;99.90;;;;;;5094092;28;20087;-76
2023/03/30 03:31:59;;;;;;;6.10;2.80;;;11.90;99.90;;;;;;5075910;28;20040;-75
2023/03/30 03:34:30;;;;;;;4.05;2.20;;;11.90;99.90;;;;;;5094306;28;20374;-76
2023/03/30 03:36:56;;;;;;;3.65;2.20;;;11.90;99.90;;;;;;5093649;28;20515;-76
2023/03/30 03:39:22;;;;;;;6.25;2.63;;;11.90;99.90;;;;;;5094429;28;20043;-76
2023/03/30 03:41:47;;;;;;;6.40;2.72;;;11.80;99.90;;;;;;5093580;28;20047;-75
2023/03/30 03:44:13;;;;;;;4.18;2.60;;;11.80;99.90;;;;;;5093569;28;20051;-75
2023/03/30 03:46:39;;;;;;;5.32;2.90;;;11.90;99.90;;;;;;5093539;28;20135;-76
2023/03/30 03:49:05;;;;;;;5.40;2.35;;;11.90;99.90;;;;;;5093444;28;20058;-77
2023/03/30 03:51:31;;;;;;;3.40;2.40;;;12.00;99.90;;;;;;5093514;28;20044;-75
2023/03/30 03:53:57;;;;;;;3.65;2.25;;;12.20;99.90;;;;;;5093412;28;20122;-75
2023/03/30 03:56:24;;;;;;;4.35;2.20;;;12.20;99.90;;;;;;5093405;28;20131;-74
2023/03/30 03:58:50;;;;;;;5.72;2.22;;;12.30;99.90;;;;;;5093376;28;20097;-74
2023/03/30 04:01:16;;;;;;;3.35;2.10;;;12.30;99.90;;;;;;5093388;28;20127;-74
2023/03/30 04:03:42;;;;;;;3.28;2.20;;;12.40;99.90;;;;;;5093853;28;20354;-74
2023/03/30 04:06:08;;;;;;;3.58;2.03;;;12.40;99.90;;;;;;5097062;28;20101;-76
2023/03/30 04:08:34;;;;;;;4.40;2.20;;;12.40;99.90;;;;;;5079628;28;20048;-75
2023/03/30 04:11:19;;;;;;;3.53;2.30;;;12.40;99.90;;;;;;5097540;28;20048;-75
2023/03/30 04:13:44;;;;;;;6.10;2.60;;;12.40;99.90;;;;;;5097864;28;20098;-75
2023/03/30 04:16:10;;;;;;;3.25;2.20;;;12.40;99.90;;;;;;5097445;28;20075;-75
2023/03/30 04:18:36;;;;;;;4.60;2.40;;;12.40;99.90;;;;;;5097218;28;20130;-75
2023/03/30 04:21:04;;;;;;;4.30;2.35;;;12.40;99.90;;;;;;5079353;28;20047;-75
2023/03/30 04:23:35;;;;;;;3.30;2.03;;;12.30;99.90;;;;;;5097154;28;20044;-75
2023/03/30 04:26:06;;;;;;;4.20;2.42;;;12.30;99.90;;;;;;5097730;28;20051;-74
2023/03/30 04:28:33;;;;;;;4.00;2.10;;;12.30;99.90;;;;;;5097218;28;20048;-75
2023/03/30 04:31:04;;;;;;;4.40;2.22;;;12.40;99.90;;;;;;5079222;28;20058;-75
2023/03/30 04:33:33;;;;;;;4.10;2.20;;;12.40;99.90;;;;;;5097929;28;20036;-75
2023/03/30 04:36:00;;;;;;;4.43;2.50;;;12.40;99.90;;;;;;5099014;28;20093;-75
2023/03/30 04:38:26;;;;;;;4.70;2.25;;;12.30;99.90;;;;;;5098757;28;20506;-75
2023/03/30 04:40:53;;;;;;;6.97;2.33;;;12.30;99.90;;;;;;5078682;28;20052;-75
2023/03/30 04:43:21;;;;;;;5.55;2.67;;;12.20;99.90;;;;;;5096539;28;20089;-76
2023/03/30 04:45:52;;;;;;;4.32;2.40;;;12.20;99.90;;;;;;5096454;28;20507;-76
2023/03/30 04:48:19;;;;;;;4.30;1.98;;;12.20;99.90;;;;;;5097409;28;20048;-76
2023/03/30 04:50:48;;;;;;;4.15;2.17;;;12.30;99.90;;;;;;5096703;28;20052;-75
2023/03/30 04:53:15;;;;;;;3.85;2.22;;;12.20;99.90;;;;;;5096692;28;20040;-76
2023/03/30 04:55:46;;;;;;;3.67;2.10;;;12.20;99.90;;;;;;5097082;28;20086;-74
2023/03/30 04:58:12;;;;;;;4.10;2.25;;;12.20;99.90;;;;;;5097435;28;20346;-75
2023/03/30 05:00:38;;;;;;;4.50;2.30;;;12.20;99.90;;;;;;5096639;28;20125;-75
2023/03/30 05:03:04;;;;;;;5.00;2.40;;;12.10;99.90;;;;;;5096164;28;20481;-75
2023/03/30 05:05:31;;;;;;;4.43;2.35;;;12.10;99.90;;;;;;5096119;28;20443;-75
2023/03/30 05:07:57;;;;;;;4.18;2.22;;;12.00;99.90;;;;;;5096379;28;20086;-75
2023/03/30 05:10:22;;;;;;;5.32;2.30;;;12.00;99.90;;;;;;5096359;28;20044;-75
2023/03/30 05:12:48;;;;;;;3.78;1.98;;;12.10;99.90;;;;;;5096266;28;20465;-76
2023/03/30 05:15:14;;;;;;;4.50;2.42;;;12.10;99.90;;;;;;5096891;28;20056;-76
2023/03/30 05:17:40;;;;;;;4.95;2.47;;;12.10;99.90;;;;;;5076836;28;20500;-76
2023/03/30 05:20:07;;;;;;;5.93;2.63;;;12.00;99.90;;;;;;5077998;28;20040;-76
2023/03/30 05:22:33;;;;;;;3.45;2.40;;;12.10;99.90;;;;;;5078983;28;20063;-75
2023/03/30 05:24:59;;;;;;;6.95;2.50;;;12.00;99.90;;;;;;5096575;28;20048;-75
2023/03/30 05:27:25;;;;;;;4.10;2.05;;;12.10;99.90;;;;;;5096081;28;20093;-74
2023/03/30 05:29:51;;;;;;;3.65;2.30;;;12.00;99.90;;;;;;5096630;28;20419;-75
2023/03/30 05:32:17;;;;;;;4.47;2.35;;;12.00;99.90;;;;;;5095717;28;20044;-76
2023/03/30 05:34:43;;;;;;;4.07;2.40;;;12.00;99.90;;;;;;5078110;28;20391;-76
2023/03/30 05:37:09;;;;;;;5.57;2.40;;;12.00;99.90;;;;;;5078296;28;20139;-75
2023/03/30 05:39:35;;;;;;;5.10;2.20;;;12.10;99.90;;;;;;5096677;28;20079;-75
2023/03/30 05:42:02;;;;;;;3.33;1.90;;;12.00;99.90;;;;;;5095802;28;20062;-75
2023/03/30 05:44:28;;;;;;;4.18;2.10;;;12.10;99.90;;;;;;5078598;28;20132;-75
2023/03/30 05:46:54;;;;;;;3.08;1.90;;;12.10;99.90;;;;;;5096485;28;20127;-75
2023/03/30 05:49:19;;;;;;;3.95;1.95;;;12.10;99.90;;;;;;5096143;28;20433;-76
2023/03/30 05:51:45;;;;;;;3.60;2.10;;;12.10;99.90;;;;;;5078108;28;20487;-75
2023/03/30 05:54:12;;;;;;;3.47;1.80;;;12.10;99.90;;;;;;5095575;28;20048;-75
2023/03/30 05:56:41;;;;;;;4.18;2.40;;;12.10;99.90;;;;;;5095669;28;20156;-75
2023/03/30 05:59:07;;;;;;;4.85;2.17;;;12.10;99.90;;;;;;5096236;28;20048;-75
2023/03/30 06:01:33;;;;;;;3.70;2.00;;;12.10;99.90;;;;;;5095383;28;20087;-75
2023/03/30 06:03:59;;;;;;;4.07;1.92;;;12.10;99.90;;;;;;5095216;28;20141;-75
2023/03/30 06:06:26;;;;;;;4.43;1.85;;;12.20;99.90;;;;;;5077710;28;20361;-76
2023/03/30 06:08:52;;;;;;;5.50;2.20;;;12.20;99.90;;;;;;5095243;28;20506;-75
2023/03/30 06:11:18;;;;;;;3.55;2.00;;;12.30;99.90;;;;;;5095128;28;20496;-75
2023/03/30 06:13:44;;;;;;;4.05;1.90;;;12.40;99.90;;;;;;5076966;28;20044;-68
2023/03/30 06:16:10;;;;;;;4.72;1.90;;;12.40;99.90;;;;;;5095030;28;20051;-68
2023/03/30 06:18:36;;;;;;;4.05;2.47;;;12.40;99.90;;;;;;5076902;28;20040;-69
2023/03/30 06:21:05;;;;;;;3.58;2.10;;;12.50;99.90;;;;;;5094844;28;20467;-69
2023/03/30 06:23:32;;;;;;;6.13;2.10;;;12.60;99.90;;;;;;5094546;28;20492;-69
2023/03/30 06:25:58;;;;;;;3.90;1.77;;;12.60;99.90;;;;;;5094844;28;20119;-68
2023/03/30 06:28:24;;;;;;;3.92;1.60;;;12.70;99.90;;;;;;5077059;28;20048;-69
2023/03/30 06:30:51;;;;;;;5.70;2.22;;;12.80;99.90;;;;;;5076791;28;20050;-69
2023/03/30 06:33:17;;;;;;;5.28;1.90;;;12.90;99.90;;;;;;5095159;28;20057;-68
2023/03/30 06:35:51;;;;;;;4.10;1.58;;;12.90;99.90;;;;;;5094473;28;20122;-70
2023/03/30 06:38:18;;;;;;;3.70;1.95;;;12.80;99.90;;;;;;5095074;28;20468;-70
2023/03/30 06:40:44;;;;;;;4.68;1.80;;;12.80;99.90;;;;;;5095060;28;20118;-70
2023/03/30 06:43:19;;;;;;;3.30;1.75;;;12.80;99.90;;;;;;5094985;28;20043;-69
2023/03/30 06:45:53;;;;;;;4.95;1.90;;;12.80;99.90;;;;;;5077381;28;20079;-69
2023/03/30 06:48:22;;;;;;;4.57;1.90;;;12.80;99.90;;;;;;5093986;28;20488;-69
2023/03/30 06:50:52;;;;;;;5.25;2.10;;;12.80;99.90;;;;;;5094132;28;20044;-70
2023/03/30 06:53:19;;;;;;;5.47;2.00;;;12.70;99.90;;;;;;5094372;28;20131;-71
2023/03/30 06:55:50;;;;;;;4.95;1.90;;;12.70;99.90;;;;;;5076143;28;20059;-68
2023/03/30 06:58:16;;;;;;;4.63;1.92;;;12.70;99.90;;;;;;5094751;28;20047;-71
2023/03/30 07:00:41;;;;;;;5.25;1.80;;;12.70;99.90;;;;;;5094579;28;20044;-69
2023/03/30 07:03:07;;;;;;;3.25;1.67;;;12.70;99.90;;;;;;5094866;28;20434;-68
2023/03/30 07:05:33;;;;;;;6.13;2.20;;;12.70;99.90;;;;;;5093993;28;20048;-70
2023/03/30 07:07:59;;;;;;;4.95;1.60;;;12.80;99.90;;;;;;5094010;28;20051;-69
2023/03/30 07:10:26;;;;;;;4.65;2.22;;;12.80;99.90;;;;;;5093839;28;20052;-68
2023/03/30 07:12:51;;;;;;;5.35;1.60;;;12.90;99.90;;;;;;5076345;28;20138;-71
2023/03/30 07:15:18;;;;;;;4.60;1.52;;;12.90;99.90;;;;;;5094410;28;20052;-69
2023/03/30 07:17:44;;;;;;;4.90;1.92;;;12.90;99.90;;;;;;5093678;28;20561;-69
2023/03/30 07:20:13;;;;;;;4.35;1.75;;;13.00;99.90;;;;;;5075824;28;20105;-69
2023/03/30 07:22:39;;;;;;;4.20;2.13;;;12.90;99.90;;;;;;5093577;28;20274;-72
2023/03/30 07:25:05;;;;;;;4.22;2.00;;;12.80;99.90;;;;;;5093730;28;20044;-68
2023/03/30 07:27:31;;;;;;;3.78;1.60;;;12.80;99.90;;;;;;5094159;28;20048;-68
2023/03/30 07:29:56;;;;;;;6.72;1.70;;;12.80;99.90;;;;;;5093255;28;20046;-73
2023/03/30 07:32:22;;;;;;;4.13;1.60;;;12.70;99.90;;;;;;5075489;28;20134;-69
2023/03/30 07:34:48;;;;;;;3.92;1.88;;;12.70;99.90;;;;;;5093553;28;20476;-69
2023/03/30 07:37:13;;;;;;;4.90;2.75;;;12.70;99.90;;;;;;5093523;28;20051;-70
2023/03/30 07:39:40;;;;;;;2.95;1.50;;;12.80;99.90;;;;;;5074956;28;20040;-70
2023/03/30 07:42:06;;;;;;;5.90;1.77;;;12.80;99.90;;;;;;5092980;28;20515;-69
2023/03/30 07:44:31;;;;;;;4.57;1.58;;;12.70;99.90;;;;;;5094068;28;20044;-69
2023/03/30 07:46:57;;;;;;;7.78;2.40;;;12.70;99.90;;;;;;5093310;28;20131;-69
2023/03/30 07:49:23;;;;;;;7.10;2.53;;;12.70;99.90;;;;;;5093159;28;20044;-70
2023/03/30 07:51:50;;;;;;;6.07;1.63;;;12.80;99.90;;;;;;5075300;28;20052;-67
2023/03/30 07:54:16;;;;;;;6.65;1.85;;;12.80;99.90;;;;;;5093208;28;20039;-70
2023/03/30 07:56:43;;;;;;;8.85;2.17;;;12.90;99.90;;;;;;5075348;28;20040;-67
2023/03/30 07:59:09;;;;;;;6.78;2.13;;;12.90;99.90;;;;;;5093144;28;20052;-68
2023/03/30 08:01:36;;;;;;;4.68;1.98;;;12.90;99.90;;;;;;5093183;28;20468;-67
2023/03/30 08:04:02;;;;;;;6.72;1.60;;;13.00;99.90;;;;;;5093076;28;20054;-67
2023/03/30 08:06:28;;;;;;;8.93;2.35;;;13.00;99.90;;;;;;5093139;28;20131;-68
2023/03/30 08:08:54;;;;;;;4.15;1.90;;;13.00;99.90;;;;;;5075628;28;20044;-68
2023/03/30 08:11:21;;;;;;;6.55;2.05;;;13.00;99.90;;;;;;5093809;28;20070;-68
2023/03/30 08:13:47;;;;;;;6.05;2.08;;;13.00;99.90;;;;;;5058072;28;20059;-67
2023/03/30 08:16:13;;;;;;;6.88;2.10;;;13.00;99.90;;;;;;5092998;28;20048;-67
2023/03/30 08:18:41;;;;;;;6.55;2.30;;;13.00;99.90;;;;;;5075970;28;20048;-67
2023/03/30 08:21:07;;;;;;;7.85;2.30;;;12.90;99.90;;;;;;5092941;28;20044;-67
2023/03/30 08:23:32;;;;;;;8.90;2.88;;;12.90;99.90;;;;;;5075632;28;20143;-70
2023/03/30 08:25:59;;;;;;;7.18;2.25;;;12.80;99.90;;;;;;5093349;28;20494;-68
2023/03/30 08:28:25;;;;;;;9.20;2.28;;;12.80;99.90;;;;;;5093878;28;20055;-68
2023/03/30 08:30:52;;;;;;;8.38;2.30;;;12.70;99.90;;;;;;5093119;28;20048;-68
2023/03/30 08:33:17;;;;;;;8.63;2.40;;;12.70;99.90;;;;;;5093018;28;20042;-68
2023/03/30 08:35:46;;;;;;;7.18;2.05;;;12.70;99.90;;;;;;5092865;28;20036;-66
2023/03/30 08:38:16;;;;;;;10.23;2.33;;;12.70;99.90;;;;;;5093751;28;20071;-68
2023/03/30 08:40:44;;;;;;;6.53;2.13;;;12.70;99.90;;;;;;5074833;28;20132;-67
2023/03/30 08:43:40;;;;;;;10.57;2.20;;;12.80;99.90;;;;;;5092814;28;20036;-67
2023/03/30 08:46:14;;;;;;;7.78;2.25;;;12.80;99.90;;;;;;5093758;28;20048;-68
2023/03/30 08:48:41;;;;;;;8.05;2.67;;;12.80;99.90;;;;;;5093426;28;20044;-67
2023/03/30 08:51:10;;;;;;;7.13;2.63;;;12.80;99.90;;;;;;5094259;28;20056;-67
2023/03/30 08:53:36;;;;;;;7.10;1.92;;;12.80;99.90;;;;;;5096611;28;20040;-67
2023/03/30 08:56:09;;;;;;;7.15;2.50;;;12.90;99.90;;;;;;5096623;28;20052;-68
2023/03/30 08:58:44;;;;;;;7.63;2.63;;;12.70;99.90;;;;;;5096647;28;20118;-67
2023/03/30 09:01:15;;;;;;;8.25;2.40;;;12.40;99.90;;;;;;5097056;28;20051;-67
2023/03/30 09:04:12;;;;;;;8.38;2.88;;;12.00;99.90;;;;;;5097272;28;20048;-67
2023/03/30 09:06:43;;;;;;;4.90;2.22;;;11.60;99.90;;;;;;5096381;28;20087;-67
2023/03/30 09:09:17;;;;;;;8.45;2.80;;;11.40;99.90;;;;;;5096445;28;20132;-67
2023/03/30 09:11:43;;;;;;;9.68;2.90;;;11.40;99.90;;;;;;5096372;28;20048;-69
2023/03/30 09:14:26;;;;;;;9.43;2.65;;;11.40;99.90;;;;;;5078027;28;20059;-67
2023/03/30 09:16:57;;;;;;;8.95;3.15;;;11.50;99.90;;;;;;5096075;28;20052;-68
2023/03/30 09:19:34;;;;;;;12.13;3.03;;;11.70;99.90;;;;;;5096266;28;20048;-66
2023/03/30 09:22:02;;;;;;;11.27;3.25;;;12.10;99.90;;;;;;5096644;28;20052;-67
2023/03/30 09:24:28;;;;;;;8.18;2.78;;;12.30;99.90;;;;;;5096519;28;20354;-67
2023/03/30 09:27:17;;;;;;;9.55;2.80;;;12.60;99.90;;;;;;5096020;28;20101;-67
2023/03/30 09:29:49;;;;;;;10.35;2.78;;;12.60;99.90;;;;;;5095999;28;20052;-67
2023/03/30 09:32:18;;;;;;;8.32;2.72;;;12.70;99.90;;;;;;5095985;28;20047;-67
2023/03/30 09:34:54;;;;;;;7.35;2.60;;;12.90;99.90;;;;;;5096152;28;20055;-68
2023/03/30 09:37:21;;;;;;;6.35;1.60;;;13.00;99.90;;;;;;5096008;28;20139;-67
2023/03/30 09:39:48;;;;;;;8.68;2.47;;;13.20;99.90;;;;;;5095723;28;20104;-67
2023/03/30 09:42:38;;;;;;;11.48;2.45;;;13.30;99.90;;;;;;5095638;28;20051;-67
2023/03/30 09:45:21;;;;;;;6.07;2.30;;;13.20;99.90;;;;;;5096023;28;20423;-68
2023/03/30 09:47:46;;;;;;;7.57;2.35;;;13.10;99.90;;;;;;5061400;28;20051;-67
2023/03/30 09:50:25;;;;;;;9.75;2.67;;;13.00;99.90;;;;;;5095527;28;20048;-67
2023/03/30 09:53:02;;;;;;;9.50;2.80;;;12.90;99.90;;;;;;5095563;28;20036;-67
2023/03/30 09:55:33;;;;;;;9.35;2.42;;;12.90;99.90;;;;;;5095779;28;20051;-67
2023/03/30 09:58:25;;;;;;;8.43;1.80;;;12.90;99.90;;;;;;5096111;28;20104;-66
2023/03/30 10:01:18;;;;;;;9.32;2.50;;;12.80;99.90;;;;;;5095297;28;20052;-67
2023/03/30 10:04:03;;;;;;;8.75;2.75;;;12.80;99.90;;;;;;5094962;28;20048;-68
2023/03/30 10:06:32;;;;;;;7.60;2.25;;;12.70;99.90;;;;;;5060894;28;20055;-67
2023/03/30 10:08:58;;;;;;;9.48;1.80;;;12.70;99.90;;;;;;5094639;28;20047;-68
2023/03/30 10:11:40;;;;;;;5.88;1.67;;;12.70;99.90;;;;;;5094701;28;20401;-68
2023/03/30 10:14:32;;;;;;;6.65;2.20;;;12.70;99.90;;;;;;5095256;28;20040;-68
2023/03/30 10:16:59;;;;;;;7.25;2.13;;;12.80;99.90;;;;;;5076331;28;20063;-68
2023/03/30 10:19:25;;;;;;;7.28;1.73;;;12.90;99.90;;;;;;5094801;28;20044;-67
2023/03/30 10:21:58;;;;;;;9.35;2.13;;;13.00;99.90;;;;;;5094606;28;20056;-68
2023/03/30 10:24:28;;;;;;;6.22;1.88;;;13.10;99.90;;;;;;5094649;28;20080;-72
2023/03/30 10:27:12;;;;;;;8.07;2.33;;;13.20;99.90;;;;;;5095222;28;20044;-66
2023/03/30 10:29:43;;;;;;;8.77;2.40;;;13.20;99.90;;;;;;5095195;28;20185;-67
2023/03/30 10:32:22;;;;;;;7.43;1.88;;;13.20;99.90;;;;;;5095062;28;20058;-67
2023/03/30 10:34:56;;;;;;;4.10;1.42;;;13.10;99.90;;;;;;5094609;28;20073;-67
2023/03/30 10:37:33;;;;;;;6.60;2.05;;;13.10;99.90;;;;;;5094415;28;20080;-67
2023/03/30 10:40:04;;;;;;;4.47;1.73;;;13.00;99.90;;;;;;5094551;28;20048;-74
2023/03/30 10:42:31;;;;;;;4.82;2.10;;;13.00;99.90;;;;;;5094872;28;20362;-74
2023/03/30 10:45:00;;;;;;;7.25;1.80;;;13.10;99.90;;;;;;5094830;28;20036;-73
2023/03/30 10:48:03;;;;;;;5.07;1.17;;;13.30;99.90;;;;;;5094374;28;20429;-73
2023/03/30 10:51:00;;;;;;;4.97;1.15;;;13.60;99.90;;;;;;5093977;28;20130;-75
2023/03/30 10:53:41;;;;;;;;;;;13.80;99.90;;;;;;5089667;28;20106;-74
2023/03/30 10:56:25;;;;;;;7.35;1.90;;;13.90;99.90;;;;;;5076189;28;20287;-72
2023/03/30 10:59:15;;;;;;;3.92;1.40;;;13.80;99.90;;;;;;5094171;28;20044;-75
2023/03/30 11:01:44;;;;;;;5.63;1.50;;;13.90;99.90;;;;;;5094636;28;20095;-74
2023/03/30 11:04:17;;;;;;;6.07;1.67;;;13.90;99.90;;;;;;5093960;28;20083;-75
2023/03/30 11:06:44;;;;;;;4.32;1.30;;;14.20;99.90;;;;;;5093690;28;20056;-73
2023/03/30 11:09:17;;;;;;;5.57;1.45;;;14.40;99.90;;;;;;5094702;28;20040;-75
2023/03/30 11:11:54;;;;;;;4.15;1.70;;;14.30;99.90;;;;;;5094420;28;20055;-75
2023/03/30 11:14:49;;;;;;;5.43;1.38;;;14.20;99.90;;;;;;5060563;28;20556;-73
2023/03/30 11:17:25;;;;;;;6.78;1.60;;;14.10;99.90;;;;;;5080270;28;20071;-73
2023/03/30 11:19:55;;;;;;;4.13;1.40;;;13.90;99.90;;;;;;5076622;28;20048;-72
2023/03/30 11:22:46;;;;;;;6.15;1.70;;;13.90;99.90;;;;;;5093637;28;20047;-74
2023/03/30 11:25:38;;;;;;;4.75;1.23;;;14.10;99.90;;;;;;5093680;28;20047;-73
2023/03/30 11:28:39;;;;;;;6.10;1.63;;;14.10;99.90;;;;;;5094196;28;20380;-73
2023/03/30 11:31:43;;;;;;;5.75;1.45;;;14.10;99.90;;;;;;5094394;28;20044;-74
2023/03/30 11:34:21;;;;;;;5.68;1.85;;;14.20;99.90;;;;;;5075724;28;20055;-73
2023/03/30 11:37:12;;;;;;;3.70;1.30;;;14.60;99.90;;;;;;5093400;28;20047;-73
2023/03/30 11:39:46;;;;;;;5.25;1.60;;;14.80;99.90;;;;;;5093587;28;20083;-78
2023/03/30 11:42:28;;;;;;;4.80;1.60;;;14.70;99.90;;;;;;5093683;28;20119;-72
2023/03/30 11:44:55;;;;;;;6.13;2.00;;;14.60;99.90;;;;;;5093495;28;20056;-72
2023/03/30 11:47:35;;;;;;;5.50;1.63;;;14.60;99.90;;;;;;5093854;28;20052;-74
2023/03/30 11:50:10;;;;;;;4.82;1.45;;;14.70;99.90;;;;;;5093379;28;20043;-73
2023/03/30 11:52:42;;;;;;;6.50;1.70;;;14.80;99.90;;;;;;5093902;28;20052;-72
2023/03/30 11:55:14;;;;;;;5.97;1.70;;;14.60;99.90;;;;;;5092992;28;20489;-74
2023/03/30 11:57:53;;;;;;;3.83;1.90;;;14.60;99.90;;;;;;5094001;28;20048;-73
2023/03/30 12:00:42;;;;;;;6.07;1.40;;;14.50;99.90;;;;;;5093847;28;20123;-72
2023/03/30 12:03:15;;;;;;;6.90;1.77;;;14.30;99.90;;;;;;5093219;28;20051;-72
2023/03/30 12:05:47;;;;;;;7.07;2.03;;;14.30;99.90;;;;;;5093679;28;20067;-72
2023/03/30 12:08:37;;;;;;;6.68;1.90;;;14.50;99.90;;;;;;5093868;28;20441;-73
2023/03/30 12:11:36;;;;;;;7.03;1.70;;;15.00;99.90;;;;;;5093024;28;20055;-74
2023/03/30 12:14:12;;;;;;;6.88;1.80;;;15.60;99.90;;;;;;5093174;28;20055;-72
2023/03/30 12:16:46;;;;;;;7.57;1.83;;;16.00;99.90;;;;;;5093371;28;20095;-76
2023/03/30 12:19:40;;;;;;;7.50;1.55;;;16.30;99.90;;;;;;5093004;28;20062;-74
2023/03/30 12:22:15;;;;;;;6.35;1.83;;;16.10;99.90;;;;;;5093263;28;20059;-74
2023/03/30 12:25:11;;;;;;;6.72;1.52;;;15.70;99.90;;;;;;5093520;28;20128;-73
2023/03/30 12:27:57;;;;;;;4.63;1.75;;;15.60;99.90;;;;;;5097749;28;20169;-73
2023/03/30 12:30:26;;;;;;;8.68;1.80;;;16.00;99.90;;;;;;5097080;28;20044;-73
2023/03/30 12:33:32;;;;;;;5.18;1.40;;;16.10;99.90;;;;;;5096998;28;20586;-74
2023/03/30 12:36:01;;;;;;;5.05;1.63;;;16.80;99.90;;;;;;5082807;28;20056;-75
2023/03/30 12:39:00;;;;;;;5.38;1.65;;;16.90;99.90;;;;;;5078911;28;20127;-74
2023/03/30 12:41:36;;;;;;;6.65;1.80;;;17.10;99.90;;;;;;5078157;28;20052;-74
2023/03/30 12:44:15;;;;;;;5.15;1.38;;;16.90;99.90;;;;;;5097166;28;20123;-73
2023/03/30 12:46:57;;;;;;;8.35;1.58;;;16.20;99.90;;;;;;5096407;28;20515;-74
2023/03/30 12:49:57;;;;;;;6.50;1.60;;;15.50;99.90;;;;;;5096639;28;20063;-75
2023/03/30 12:52:31;;;;;;;8.38;1.75;;;15.20;99.90;;;;;;5078830;28;20048;-70
2023/03/30 12:55:26;;;;;;;8.57;2.42;;;14.90;99.90;;;;;;5097539;28;20055;-74
2023/03/30 12:58:30;;;;;;;6.60;1.77;;;14.70;99.90;;;;;;5097250;28;20051;-74
2023/03/30 13:01:06;;;;;;;3.83;1.20;;;14.70;99.90;;;;;;5096327;28;20075;-75
2023/03/30 13:03:48;;;;;;;10.23;1.63;;;14.80;99.90;;;;;;5096282;28;20040;-73
2023/03/30 13:06:29;;;;;;;9.60;1.58;;;14.80;99.90;;;;;;5096326;28;20055;-75
2023/03/30 13:09:16;;;;;;;4.93;1.52;;;13.70;99.90;;;;;;5096315;28;20044;-73
2023/03/30 13:11:51;;;;;;;8.30;2.30;;;12.90;99.90;;;;;;5061095;28;20407;-71
2023/03/30 13:14:34;;;;;;;7.03;1.83;;;12.80;99.90;;;;;;5096121;28;20036;-71
2023/03/30 13:17:00;;;;;;;6.15;1.70;;;13.50;99.90;;;;;;5078898;28;20052;-72
2023/03/30 13:19:31;;;;;;;8.88;2.53;;;14.10;99.90;;;;;;5077734;28;20058;-72